createdAt,value
2018-06-14T00:00:00.964Z,6.80
2018-06-14T00:02:29.694Z,6.97
2018-06-14T00:04:58.361Z,7.30
2018-06-14T00:07:27.048Z,6.67
2018-06-14T00:09:55.750Z,6.73
2018-06-14T00:12:24.474Z,6.80
2018-06-14T00:14:53.167Z,7.47
2018-06-14T00:17:21.839Z,7.60
2018-06-14T00:19:50.546Z,7.03
2018-06-14T00:22:19.413Z,7.67
2018-06-14T00:24:48.245Z,7.00
2018-06-14T00:27:17.012Z,6.83
2018-06-14T00:29:45.695Z,7.50
2018-06-14T00:32:14.517Z,7.33
2018-06-14T00:34:43.217Z,8.37
2018-06-14T00:37:11.921Z,7.10
2018-06-14T00:39:40.586Z,8.03
2018-06-14T00:42:09.242Z,8.13
2018-06-14T00:44:37.971Z,7.70
2018-06-14T00:47:06.715Z,8.10
2018-06-14T00:49:35.430Z,8.30
2018-06-14T00:52:04.155Z,8.00
2018-06-14T00:54:32.867Z,7.60
2018-06-14T00:57:12.650Z,8.30
2018-06-14T00:59:41.340Z,7.90
2018-06-14T01:02:10.035Z,7.90
2018-06-14T01:04:38.687Z,8.10
2018-06-14T01:07:07.381Z,7.60
2018-06-14T01:09:36.114Z,8.27
2018-06-14T01:12:04.822Z,7.10
2018-06-14T01:14:33.530Z,8.30
2018-06-14T01:17:02.198Z,7.37
2018-06-14T01:19:30.899Z,7.87
2018-06-14T01:21:59.594Z,8.73
2018-06-14T01:24:28.262Z,7.67
2018-06-14T01:26:57.239Z,7.43
2018-06-14T01:29:26.126Z,8.07
2018-06-14T01:31:54.783Z,8.70
2018-06-14T01:34:23.471Z,7.87
2018-06-14T01:36:52.130Z,7.87
2018-06-14T01:39:20.870Z,8.20
2018-06-14T01:41:49.623Z,8.33
2018-06-14T01:44:18.268Z,8.07
2018-06-14T01:46:46.953Z,8.00
2018-06-14T01:49:15.633Z,8.20
2018-06-14T01:51:44.363Z,8.07
2018-06-14T01:54:13.041Z,8.47
2018-06-14T01:56:41.826Z,8.83
2018-06-14T01:59:10.536Z,9.17
2018-06-14T02:01:39.296Z,8.13
2018-06-14T02:04:08.020Z,7.80
2018-06-14T02:06:36.773Z,9.13
2018-06-14T02:09:07.281Z,8.73
2018-06-14T02:11:36.048Z,9.80
2018-06-14T02:14:04.850Z,8.57
2018-06-14T02:16:33.554Z,9.13
2018-06-14T02:19:02.559Z,8.40
2018-06-14T02:21:31.241Z,9.10
2018-06-14T02:23:59.919Z,8.00
2018-06-14T02:26:28.609Z,9.00
2018-06-14T02:28:57.307Z,9.27
2018-06-14T02:31:26.042Z,8.27
2018-06-14T02:33:54.833Z,9.60
2018-06-14T02:36:23.598Z,8.60
2018-06-14T02:38:52.236Z,8.53
2018-06-14T02:41:20.926Z,9.07
2018-06-14T02:43:49.684Z,8.50
2018-06-14T02:46:18.501Z,8.87
2018-06-14T02:48:47.168Z,9.17
2018-06-14T02:51:15.861Z,9.03
2018-06-14T02:53:44.559Z,9.40
2018-06-14T02:56:13.230Z,9.23
2018-06-14T02:58:41.942Z,9.23
2018-06-14T03:01:10.640Z,8.57
2018-06-14T03:03:39.330Z,9.10
2018-06-14T03:06:08.023Z,8.50
2018-06-14T03:08:36.694Z,9.60
2018-06-14T03:11:05.416Z,9.07
2018-06-14T03:13:33.710Z,9.53
2018-06-14T03:16:02.392Z,9.20
2018-06-14T03:18:31.135Z,8.90
2018-06-14T03:20:59.865Z,8.50
2018-06-14T03:23:28.329Z,9.17
2018-06-14T03:25:56.980Z,8.90
2018-06-14T03:28:25.690Z,9.77
2018-06-14T03:30:54.454Z,9.57
2018-06-14T03:33:23.138Z,9.23
2018-06-14T03:35:51.862Z,9.07
2018-06-14T03:38:20.543Z,9.43
2018-06-14T03:40:49.278Z,10.17
2018-06-14T03:43:18.014Z,10.07
2018-06-14T03:45:46.674Z,9.97
2018-06-14T03:48:15.781Z,8.90
2018-06-14T03:50:44.755Z,9.73
2018-06-14T03:53:13.480Z,9.93
2018-06-14T03:55:41.814Z,9.20
2018-06-14T03:58:12.578Z,9.80
2018-06-14T04:00:41.333Z,9.57
2018-06-14T04:03:10.342Z,9.00
2018-06-14T04:05:39.012Z,9.50
2018-06-14T04:08:07.721Z,9.33
2018-06-14T04:10:36.417Z,9.50
2018-06-14T04:13:05.266Z,9.30
2018-06-14T04:15:33.955Z,9.00
2018-06-14T04:18:03.886Z,9.50
2018-06-14T04:20:34.124Z,9.87
2018-06-14T04:23:02.780Z,10.43
2018-06-14T04:25:31.502Z,9.50
2018-06-14T04:28:00.218Z,10.80
2018-06-14T04:30:28.979Z,9.80
2018-06-14T04:32:57.691Z,9.27
2018-06-14T04:35:26.406Z,9.07
2018-06-14T04:37:55.131Z,10.30
2018-06-14T04:40:23.868Z,10.23
2018-06-14T04:42:52.793Z,10.70
2018-06-14T04:45:21.531Z,9.03
2018-06-14T04:47:50.266Z,10.10
2018-06-14T04:50:18.961Z,10.40
2018-06-14T04:52:47.695Z,10.10
2018-06-14T04:55:16.421Z,10.33
2018-06-14T04:57:45.160Z,10.83
2018-06-14T05:00:13.858Z,10.20
2018-06-14T05:02:42.534Z,9.33
2018-06-14T05:05:10.874Z,10.30
2018-06-14T05:07:39.892Z,9.77
2018-06-14T05:10:08.645Z,9.70
2018-06-14T05:12:37.356Z,10.57
2018-06-14T05:15:06.066Z,10.20
2018-06-14T05:17:34.823Z,10.30
2018-06-14T05:20:03.616Z,10.60
2018-06-14T05:22:32.372Z,9.50
2018-06-14T05:25:01.113Z,9.70
2018-06-14T05:27:29.844Z,10.57
2018-06-14T05:29:58.552Z,10.40
2018-06-14T05:32:27.483Z,9.77
2018-06-14T05:34:56.195Z,10.37
2018-06-14T05:37:24.962Z,9.83
2018-06-14T05:39:53.648Z,10.07
2018-06-14T05:42:22.388Z,11.07
2018-06-14T05:44:51.161Z,10.13
2018-06-14T05:47:19.911Z,10.43
2018-06-14T05:49:48.639Z,10.50
2018-06-14T05:52:17.412Z,10.10
2018-06-14T05:54:46.270Z,10.27
2018-06-14T05:57:15.058Z,10.33
2018-06-14T05:59:43.796Z,10.50
2018-06-14T06:02:12.593Z,10.67
2018-06-14T06:04:41.361Z,11.13
2018-06-14T06:07:10.152Z,10.03
2018-06-14T06:09:38.938Z,9.80
2018-06-14T06:12:07.683Z,9.67
2018-06-14T06:14:39.592Z,10.40
2018-06-14T06:17:08.325Z,10.23
2018-06-14T06:19:37.011Z,9.93
2018-06-14T06:22:05.776Z,9.90
2018-06-14T06:24:34.490Z,11.00
2018-06-14T06:27:03.243Z,9.67
2018-06-14T06:29:31.959Z,10.30
2018-06-14T06:32:00.654Z,8.00
2018-06-14T06:34:29.395Z,8.77
2018-06-14T06:36:58.128Z,7.83
2018-06-14T06:39:26.879Z,8.20
2018-06-14T06:41:55.566Z,8.47
2018-06-14T06:44:24.293Z,8.00
2018-06-14T06:46:53.027Z,7.63
2018-06-14T06:49:21.882Z,7.80
2018-06-14T06:51:50.641Z,8.20
2018-06-14T06:54:19.362Z,8.63
2018-06-14T06:56:48.139Z,8.37
2018-06-14T06:59:17.461Z,7.50
2018-06-14T07:01:46.180Z,7.77
2018-06-14T07:04:15.021Z,7.73
2018-06-14T07:06:43.807Z,8.03
2018-06-14T07:09:13.742Z,7.30
2018-06-14T07:11:42.549Z,7.13
2018-06-14T07:14:12.118Z,6.00
2018-06-14T07:16:40.559Z,5.97
2018-06-14T07:19:09.360Z,5.70
2018-06-14T07:21:37.724Z,4.63
2018-06-14T07:24:06.493Z,4.90
2018-06-14T07:26:35.162Z,4.57
2018-06-14T07:29:03.955Z,5.60
2018-06-14T07:31:32.667Z,4.70
2018-06-14T07:34:01.454Z,4.10
2018-06-14T07:36:30.194Z,3.27
2018-06-14T07:38:58.901Z,3.27
2018-06-14T07:41:27.633Z,2.90
2018-06-14T07:43:56.378Z,3.50
2018-06-14T07:46:25.166Z,3.53
2018-06-14T07:48:53.922Z,3.00
2018-06-14T07:51:22.611Z,3.20
2018-06-14T07:53:51.338Z,2.43
2018-06-14T07:56:20.055Z,2.80
2018-06-14T07:58:48.879Z,3.37
2018-06-14T08:01:17.719Z,2.70
2018-06-14T08:03:46.505Z,3.17
2018-06-14T08:06:15.227Z,3.10
2018-06-14T08:08:43.936Z,3.00
2018-06-14T08:11:12.765Z,3.33
2018-06-14T08:13:41.501Z,2.90
2018-06-14T08:16:10.219Z,3.10
2018-06-14T08:18:38.962Z,3.30
2018-06-14T08:21:07.694Z,2.80
2018-06-14T08:23:36.428Z,3.10
2018-06-14T08:26:05.178Z,2.90
2018-06-14T08:28:33.896Z,3.93
2018-06-14T08:31:02.643Z,3.40
2018-06-14T08:33:31.350Z,3.03
2018-06-14T08:36:00.101Z,3.33
2018-06-14T08:38:28.800Z,3.10
2018-06-14T08:40:57.494Z,3.40
2018-06-14T08:43:26.258Z,3.00
2018-06-14T08:45:54.935Z,2.90
2018-06-14T08:48:23.666Z,3.40
2018-06-14T08:50:52.402Z,3.50
2018-06-14T08:53:39.173Z,2.97
2018-06-14T08:56:07.927Z,3.30
2018-06-14T08:58:36.692Z,3.50
2018-06-14T09:01:05.475Z,3.47
2018-06-14T09:03:34.179Z,3.20
2018-06-14T09:06:02.934Z,3.77
2018-06-14T09:08:31.651Z,3.40
2018-06-14T09:11:00.403Z,3.80
2018-06-14T09:13:29.139Z,4.13
2018-06-14T09:15:57.908Z,3.30
2018-06-14T09:18:27.465Z,3.87
2018-06-14T09:20:56.185Z,3.20
2018-06-14T09:23:24.982Z,3.83
2018-06-14T09:25:53.673Z,3.33
2018-06-14T09:28:22.401Z,4.00
2018-06-14T09:30:51.132Z,3.67
2018-06-14T09:33:19.848Z,3.73
2018-06-14T09:35:48.664Z,3.83
2018-06-14T09:38:17.377Z,3.77
2018-06-14T09:40:46.180Z,3.47
2018-06-14T09:43:14.901Z,3.33
2018-06-14T09:45:43.604Z,3.63
2018-06-14T09:48:12.371Z,3.67
2018-06-14T09:50:41.115Z,3.30
2018-06-14T09:53:09.840Z,3.80
2018-06-14T09:55:38.570Z,3.87
2018-06-14T09:58:07.262Z,3.90
2018-06-14T10:00:35.981Z,3.63
2018-06-14T10:03:04.734Z,4.00
2018-06-14T10:05:33.473Z,3.90
2018-06-14T10:10:23.692Z,3.80
2018-06-14T10:12:52.450Z,3.93
2018-06-14T10:15:21.158Z,3.50
2018-06-14T10:17:50.030Z,3.50
2018-06-14T10:20:18.741Z,4.17
2018-06-14T10:22:47.484Z,4.13
2018-06-14T10:25:16.214Z,3.53
2018-06-14T10:27:44.954Z,3.60
2018-06-14T10:30:13.666Z,3.67
2018-06-14T10:32:48.978Z,4.40
2018-06-14T10:35:17.701Z,4.10
2018-06-14T10:37:46.472Z,3.63
2018-06-14T10:40:15.166Z,3.70
2018-06-14T10:42:43.947Z,3.97
2018-06-14T10:45:12.678Z,4.20
2018-06-14T10:47:41.041Z,3.80
2018-06-14T10:50:15.686Z,4.20
2018-06-14T10:52:44.402Z,4.70
2018-06-14T10:55:13.121Z,4.13
2018-06-14T10:57:41.906Z,4.10
2018-06-14T11:00:10.661Z,4.70
2018-06-14T11:02:39.376Z,4.53
2018-06-14T11:05:08.401Z,4.50
2018-06-14T11:07:37.109Z,4.40
2018-06-14T11:10:06.795Z,4.50
2018-06-14T11:12:35.641Z,5.23
2018-06-14T11:15:04.374Z,5.20
2018-06-14T11:17:33.150Z,4.80
2018-06-14T11:20:16.266Z,4.60
2018-06-14T11:22:44.988Z,4.80
2018-06-14T11:25:13.335Z,4.90
2018-06-14T11:27:42.153Z,4.50
2018-06-14T11:30:10.926Z,4.63
2018-06-14T11:32:41.555Z,5.00
2018-06-14T11:35:10.265Z,4.13
2018-06-14T11:37:39.823Z,4.30
2018-06-14T11:40:09.262Z,4.23
2018-06-14T11:42:37.926Z,4.73
2018-06-14T11:45:06.699Z,4.87
2018-06-14T11:47:35.401Z,4.80
2018-06-14T11:50:04.132Z,4.67
2018-06-14T11:52:32.836Z,4.57
2018-06-14T11:55:01.549Z,4.50
2018-06-14T11:57:30.297Z,3.90
2018-06-14T11:59:59.014Z,4.90
2018-06-14T12:02:27.708Z,4.80
2018-06-14T12:04:56.418Z,4.30
2018-06-14T12:07:25.128Z,5.00
2018-06-14T12:09:53.860Z,4.60
2018-06-14T12:12:22.985Z,4.20
2018-06-14T12:14:51.787Z,4.37
2018-06-14T12:17:20.637Z,4.67
2018-06-14T12:19:49.394Z,3.90
2018-06-14T12:22:18.210Z,4.47
2018-06-14T12:24:46.959Z,4.30
2018-06-14T12:27:21.189Z,5.00
2018-06-14T12:29:49.971Z,4.60
2018-06-14T12:32:20.736Z,4.13
2018-06-14T12:34:49.530Z,4.53
2018-06-14T12:37:18.223Z,4.30
2018-06-14T12:39:46.992Z,3.87
2018-06-14T12:42:15.673Z,4.30
2018-06-14T12:44:44.401Z,5.00
2018-06-14T12:47:13.089Z,4.43
2018-06-14T12:49:41.842Z,4.70
2018-06-14T12:52:10.624Z,5.00
2018-06-14T12:54:39.317Z,5.10
2018-06-14T12:57:08.044Z,5.27
2018-06-14T12:59:36.771Z,5.10
2018-06-14T13:02:05.481Z,5.03
2018-06-14T13:04:34.329Z,5.10
2018-06-14T13:07:03.108Z,5.10
2018-06-14T13:09:32.397Z,5.20
2018-06-14T13:12:01.131Z,5.07
2018-06-14T13:14:29.839Z,4.87
2018-06-14T13:16:58.538Z,5.10
2018-06-14T13:19:27.266Z,5.17
2018-06-14T13:21:56.039Z,5.00
2018-06-14T13:24:24.806Z,5.43
2018-06-14T13:26:53.601Z,5.30
2018-06-14T13:29:22.410Z,4.30
2018-06-14T13:31:51.108Z,4.60
2018-06-14T13:34:19.857Z,5.60
2018-06-14T13:39:41.994Z,4.20
2018-06-14T13:42:10.747Z,4.97
2018-06-14T13:44:39.474Z,4.23
2018-06-14T13:47:08.233Z,5.10
2018-06-14T13:49:36.938Z,4.43
2018-06-14T13:52:05.705Z,4.20
2018-06-14T13:54:34.422Z,4.40
2018-06-14T13:57:03.153Z,4.87
2018-06-14T13:59:31.889Z,4.90
2018-06-14T14:02:00.618Z,4.80
2018-06-14T14:04:29.398Z,4.20
2018-06-14T14:07:03.254Z,4.57
2018-06-14T14:09:32.003Z,4.73
2018-06-14T14:12:00.795Z,4.57
2018-06-14T14:14:29.554Z,5.20
2018-06-14T14:16:58.385Z,4.50
2018-06-14T14:19:27.114Z,5.10
2018-06-14T14:21:55.845Z,4.67
2018-06-14T14:24:24.170Z,4.77
2018-06-14T14:26:52.981Z,4.30
2018-06-14T14:29:21.759Z,4.40
2018-06-14T14:31:50.480Z,5.87
2018-06-14T14:34:19.291Z,5.77
2018-06-14T14:36:48.058Z,4.47
2018-06-14T14:39:16.736Z,4.77
2018-06-14T14:41:45.092Z,4.97
2018-06-14T14:44:13.841Z,5.37
2018-06-14T14:46:42.596Z,4.90
2018-06-14T14:49:11.328Z,5.70
2018-06-14T14:51:40.103Z,4.50
2018-06-14T14:54:08.818Z,5.77
2018-06-14T14:56:37.717Z,5.57
2018-06-14T14:59:06.504Z,5.40
2018-06-14T15:01:35.255Z,5.10
2018-06-14T15:04:04.055Z,5.00
2018-06-14T15:06:32.847Z,6.23
2018-06-14T15:09:01.700Z,5.47
2018-06-14T15:11:30.455Z,4.33
2018-06-14T15:13:59.468Z,5.50
2018-06-14T15:16:28.599Z,4.77
2018-06-14T15:18:57.721Z,5.10
2018-06-14T15:21:26.455Z,5.47
2018-06-14T15:23:55.295Z,5.00
2018-06-14T15:26:24.236Z,4.83
2018-06-14T15:28:52.949Z,4.80
2018-06-14T15:31:21.642Z,5.80
2018-06-14T15:33:51.359Z,5.40
2018-06-14T15:36:20.758Z,6.40
2018-06-14T15:38:49.624Z,5.30
2018-06-14T15:41:18.350Z,5.57
2018-06-14T15:43:47.081Z,5.53
2018-06-14T15:46:15.825Z,5.27
2018-06-14T15:48:44.675Z,5.10
2018-06-14T15:51:13.375Z,4.70
2018-06-14T15:53:47.359Z,5.60
2018-06-14T15:56:31.818Z,5.43
2018-06-14T15:59:00.569Z,4.60
2018-06-14T16:01:29.441Z,4.90
2018-06-14T16:03:58.215Z,5.43
2018-06-14T16:06:26.917Z,4.33
2018-06-14T16:08:57.881Z,4.90
2018-06-14T16:11:26.745Z,5.40
2018-06-14T16:13:55.474Z,4.77
2018-06-14T16:16:25.177Z,4.10
2018-06-14T16:18:58.342Z,4.30
2018-06-14T16:21:27.162Z,4.63
2018-06-14T16:23:55.902Z,4.30
2018-06-14T16:26:24.677Z,4.40
2018-06-14T16:28:53.369Z,4.33
2018-06-14T16:31:22.103Z,4.80
2018-06-14T16:33:50.911Z,4.57
2018-06-14T16:36:19.690Z,4.80
2018-06-14T16:38:48.438Z,4.63
2018-06-14T16:41:23.644Z,5.40
2018-06-14T16:43:52.350Z,5.40
2018-06-14T16:46:21.023Z,4.83
2018-06-14T16:48:49.846Z,4.10
2018-06-14T16:51:18.546Z,5.30
2018-06-14T16:53:47.420Z,4.97
2018-06-14T16:56:16.099Z,4.83
2018-06-14T16:58:44.837Z,4.90
2018-06-14T17:01:14.616Z,5.70
2018-06-14T17:03:43.305Z,5.80
2018-06-14T17:06:12.038Z,5.30
2018-06-14T17:08:40.750Z,5.00
2018-06-14T17:11:09.604Z,4.77
2018-06-14T17:13:38.336Z,5.00
2018-06-14T17:16:07.093Z,5.00
2018-06-14T17:18:35.812Z,4.23
2018-06-14T17:21:04.522Z,4.13
2018-06-14T17:23:33.257Z,4.83
2018-06-14T17:26:01.971Z,4.80
2018-06-14T17:28:30.698Z,4.43
2018-06-14T17:30:59.496Z,4.70
2018-06-14T17:33:28.278Z,4.30
2018-06-14T17:35:57.111Z,4.77
2018-06-14T17:38:25.832Z,4.77
2018-06-14T17:40:54.551Z,4.83
2018-06-14T17:43:23.306Z,4.23
2018-06-14T17:45:52.002Z,4.10
2018-06-14T17:48:20.801Z,5.20
2018-06-14T17:50:49.561Z,4.67
2018-06-14T17:53:17.889Z,4.60
2018-06-14T17:55:46.889Z,4.20
2018-06-14T17:58:16.787Z,4.60
2018-06-14T18:00:45.571Z,4.57
2018-06-14T18:03:14.418Z,4.50
2018-06-14T18:05:43.104Z,4.77
2018-06-14T18:08:11.886Z,4.17
2018-06-14T18:10:40.638Z,4.07
2018-06-14T18:13:09.378Z,4.53
2018-06-14T18:15:38.104Z,5.07
2018-06-14T18:18:06.770Z,4.67
2018-06-14T18:20:35.637Z,4.17
2018-06-14T18:23:04.354Z,4.27
2018-06-14T18:25:33.057Z,4.70
2018-06-14T18:28:02.830Z,4.80
2018-06-14T18:30:31.556Z,4.60
2018-06-14T18:33:18.601Z,4.20
2018-06-14T18:35:47.352Z,4.47
2018-06-14T18:38:16.393Z,4.50
2018-06-14T18:40:45.190Z,5.30
2018-06-14T18:43:13.598Z,4.83
2018-06-14T18:45:42.379Z,4.80
2018-06-14T18:48:11.172Z,5.20
2018-06-14T18:50:40.010Z,5.00
2018-06-14T18:53:08.817Z,4.37
2018-06-14T18:55:39.125Z,4.60
2018-06-14T18:58:14.104Z,4.97
2018-06-14T19:00:43.841Z,4.87
2018-06-14T19:03:12.738Z,5.13
2018-06-14T19:05:41.485Z,4.50
2018-06-14T19:08:11.070Z,4.90
2018-06-14T19:10:39.757Z,5.37
2018-06-14T19:13:08.446Z,6.00
2018-06-14T19:15:37.261Z,5.50
2018-06-14T19:18:05.996Z,5.90
2018-06-14T19:20:34.722Z,5.30
2018-06-14T19:23:03.484Z,6.03
2018-06-14T19:25:32.183Z,5.90
2018-06-14T19:28:00.896Z,6.20
2018-06-14T19:30:29.207Z,6.00
2018-06-14T19:32:57.958Z,5.90
2018-06-14T19:35:27.028Z,6.40
2018-06-14T19:37:55.549Z,7.00
2018-06-14T19:40:24.417Z,6.87
2018-06-14T19:42:53.107Z,6.00
2018-06-14T19:45:23.857Z,6.03
2018-06-14T19:47:52.582Z,6.87
2018-06-14T19:50:24.631Z,6.20
2018-06-14T19:52:53.356Z,6.20
2018-06-14T19:55:22.083Z,6.67
2018-06-14T19:57:50.779Z,6.50
2018-06-14T20:00:19.543Z,7.10
2018-06-14T20:02:48.356Z,6.17
2018-06-14T20:05:17.106Z,6.20
2018-06-14T20:07:45.839Z,6.27
2018-06-14T20:10:14.533Z,7.20
2018-06-14T20:12:43.366Z,7.60
2018-06-14T20:15:12.133Z,7.47
2018-06-14T20:17:41.823Z,8.00
2018-06-14T20:20:10.947Z,7.00
2018-06-14T20:22:39.667Z,8.13
2018-06-14T20:25:08.473Z,7.83
2018-06-14T20:27:37.388Z,7.30
2018-06-14T20:30:06.264Z,7.60
2018-06-14T20:32:38.634Z,8.00
2018-06-14T20:35:07.347Z,7.27
2018-06-14T20:37:36.046Z,7.23
2018-06-14T20:40:05.773Z,8.00
2018-06-14T20:42:34.519Z,8.10
2018-06-14T20:45:03.271Z,8.13
2018-06-14T20:47:32.006Z,7.63
2018-06-14T20:50:00.720Z,8.43
2018-06-14T20:52:29.478Z,8.10
2018-06-14T20:54:58.173Z,7.80
2018-06-14T20:57:27.104Z,7.50
2018-06-14T20:59:55.811Z,8.10
2018-06-14T21:02:27.852Z,9.53
2018-06-14T21:04:56.641Z,8.70
2018-06-14T21:07:25.311Z,9.03
2018-06-14T21:09:54.096Z,8.87
2018-06-14T21:12:22.786Z,7.80
2018-06-14T21:14:51.516Z,8.57
2018-06-14T21:17:20.224Z,9.10
2018-06-14T21:19:48.917Z,9.37
2018-06-14T21:22:17.667Z,8.70
2018-06-14T21:24:46.369Z,9.40
2018-06-14T21:27:18.562Z,9.57
2018-06-14T21:29:47.259Z,8.80
2018-06-14T21:32:15.957Z,9.97
2018-06-14T21:34:44.300Z,9.43
2018-06-14T21:37:13.034Z,9.60
2018-06-14T21:39:41.787Z,10.13
2018-06-14T21:42:10.480Z,11.50
2018-06-14T21:44:39.175Z,11.20
2018-06-14T21:47:07.919Z,11.53
2018-06-14T21:49:38.646Z,10.63
2018-06-14T21:52:07.415Z,10.87
2018-06-14T21:54:36.173Z,9.83
2018-06-14T21:57:04.954Z,10.33
2018-06-14T21:59:33.738Z,9.70
2018-06-14T22:02:02.460Z,10.10
2018-06-14T22:04:31.204Z,9.53
2018-06-14T22:06:59.892Z,10.40
2018-06-14T22:09:28.607Z,9.33
2018-06-14T22:11:57.307Z,9.70
2018-06-14T22:14:26.001Z,10.20
2018-06-14T22:16:54.819Z,9.23
2018-06-14T22:19:23.505Z,9.17
2018-06-14T22:21:52.246Z,11.30
2018-06-14T22:24:21.016Z,10.30
2018-06-14T22:26:49.343Z,9.83
2018-06-14T22:29:18.103Z,9.80
2018-06-14T22:31:46.800Z,9.10
2018-06-14T22:34:26.585Z,9.03
2018-06-14T22:36:55.269Z,9.77
2018-06-14T22:39:24.007Z,9.50
2018-06-14T22:41:52.741Z,10.23
2018-06-14T22:44:21.474Z,10.33
2018-06-14T22:46:50.264Z,9.67
2018-06-14T22:49:18.978Z,10.83
2018-06-14T22:52:01.477Z,10.13
2018-06-14T22:54:30.153Z,10.10
2018-06-14T22:56:58.873Z,10.50
2018-06-14T22:59:27.558Z,10.60
2018-06-14T23:01:56.264Z,10.43
2018-06-14T23:04:27.155Z,10.40
2018-06-14T23:06:56.012Z,9.93
2018-06-14T23:10:34.294Z,10.30
2018-06-14T23:13:03.340Z,9.83
2018-06-14T23:15:32.040Z,10.33
2018-06-14T23:18:00.890Z,10.50
2018-06-14T23:20:30.596Z,11.30
2018-06-14T23:23:01.304Z,11.00
2018-06-14T23:25:30.762Z,11.33
2018-06-14T23:27:59.525Z,10.43
2018-06-14T23:30:27.879Z,10.23
2018-06-14T23:32:56.562Z,10.80
2018-06-14T23:35:25.285Z,10.23
2018-06-14T23:37:54.030Z,10.13
2018-06-14T23:40:22.951Z,11.33
2018-06-14T23:42:51.689Z,13.00
2018-06-14T23:45:20.402Z,13.23
2018-06-14T23:47:49.181Z,12.33
2018-06-14T23:50:17.938Z,11.23
2018-06-14T23:52:46.660Z,11.20
2018-06-14T23:55:15.398Z,10.83
2018-06-14T23:57:44.102Z,11.63
